createdAt,value
2017-07-04T00:00:05.623Z,11.79
2017-07-04T00:00:17.498Z,11.94
2017-07-04T00:00:30.442Z,11.88
2017-07-04T00:00:42.768Z,11.91
2017-07-04T00:00:55.167Z,11.91
2017-07-04T00:01:08.047Z,11.86
2017-07-04T00:01:21.496Z,11.88
2017-07-04T00:01:33.388Z,11.81
2017-07-04T00:01:45.208Z,11.86
2017-07-04T00:01:57.055Z,11.79
2017-07-04T00:02:10.027Z,11.85
2017-07-04T00:02:22.926Z,11.86
2017-07-04T00:02:36.372Z,11.84
2017-07-04T00:02:49.962Z,11.71
2017-07-04T00:03:02.923Z,11.75
2017-07-04T00:03:15.836Z,11.88
2017-07-04T00:03:29.302Z,11.88
2017-07-04T00:03:42.248Z,11.7
2017-07-04T00:03:55.201Z,11.78
2017-07-04T00:04:07.587Z,11.85
2017-07-04T00:04:20.570Z,11.85
2017-07-04T00:04:34.063Z,11.85
2017-07-04T00:04:47.020Z,11.85
2017-07-04T00:05:00.192Z,11.78
2017-07-04T00:05:13.094Z,11.88
2017-07-04T00:05:26.629Z,11.75
2017-07-04T00:05:39.531Z,11.85
2017-07-04T00:05:52.416Z,11.82
2017-07-04T00:06:05.844Z,11.73
2017-07-04T00:06:17.819Z,11.76
2017-07-04T00:06:29.968Z,11.81
2017-07-04T00:06:41.862Z,11.79
2017-07-04T00:06:54.255Z,11.79
2017-07-04T00:07:06.631Z,11.79
2017-07-04T00:07:20.114Z,11.67
2017-07-04T00:07:33.071Z,11.68
2017-07-04T00:07:46.011Z,11.78
2017-07-04T00:07:59.037Z,11.76
2017-07-04T00:08:11.439Z,11.73
2017-07-04T00:08:24.922Z,11.71
2017-07-04T00:08:38.416Z,11.76
2017-07-04T00:08:51.377Z,11.71
2017-07-04T00:09:04.262Z,11.71
2017-07-04T00:09:17.777Z,11.75
2017-07-04T00:09:30.666Z,11.71
2017-07-04T00:09:43.040Z,11.71
2017-07-04T00:09:56.510Z,11.73
2017-07-04T00:10:09.473Z,11.78
2017-07-04T00:10:22.379Z,11.73
2017-07-04T00:10:35.839Z,11.78
2017-07-04T00:10:49.347Z,11.73
2017-07-04T00:11:01.763Z,11.73
2017-07-04T00:11:14.143Z,11.71
2017-07-04T00:11:27.022Z,11.7
2017-07-04T00:11:40.469Z,11.73
2017-07-04T00:11:52.330Z,11.79
2017-07-04T00:12:05.194Z,11.7
2017-07-04T00:12:18.224Z,11.75
2017-07-04T00:12:31.209Z,11.71
2017-07-04T00:12:44.666Z,11.68
2017-07-04T00:12:57.083Z,11.71
2017-07-04T00:13:09.487Z,11.75
2017-07-04T00:13:22.414Z,11.66
2017-07-04T00:13:35.319Z,11.73
2017-07-04T00:13:48.786Z,11.76
2017-07-04T00:14:01.194Z,11.7
2017-07-04T00:14:14.089Z,11.68
2017-07-04T00:14:27.566Z,11.73
2017-07-04T00:14:40.989Z,11.78
2017-07-04T00:14:54.410Z,11.73
2017-07-04T00:15:07.287Z,11.68
2017-07-04T00:15:20.191Z,11.67
2017-07-04T00:15:33.644Z,11.67
2017-07-04T00:15:46.009Z,11.6
2017-07-04T00:15:58.413Z,11.63
2017-07-04T00:16:10.810Z,11.67
2017-07-04T00:16:23.755Z,11.67
2017-07-04T00:16:36.721Z,11.66
2017-07-04T00:16:49.663Z,11.68
2017-07-04T00:17:02.060Z,11.78
2017-07-04T00:17:14.986Z,11.67
2017-07-04T00:17:28.453Z,11.66
2017-07-04T00:17:41.345Z,11.66
2017-07-04T00:17:54.203Z,11.64
2017-07-04T00:18:06.038Z,11.7
2017-07-04T00:18:17.908Z,11.6
2017-07-04T00:18:30.838Z,11.66
2017-07-04T00:18:43.217Z,11.64
2017-07-04T00:18:55.627Z,11.66
2017-07-04T00:19:08.558Z,11.68
2017-07-04T00:19:22.024Z,11.64
2017-07-04T00:19:34.930Z,11.71
2017-07-04T00:19:47.350Z,11.76
2017-07-04T00:20:00.252Z,11.73
2017-07-04T00:20:13.197Z,11.75
2017-07-04T00:20:26.094Z,11.71
2017-07-04T00:20:37.956Z,11.71
2017-07-04T00:20:50.377Z,11.73
2017-07-04T00:21:03.351Z,11.71
2017-07-04T00:21:15.755Z,11.81
2017-07-04T00:21:30.318Z,11.7
2017-07-04T00:21:43.215Z,11.7
2017-07-04T00:21:56.655Z,11.73
2017-07-04T00:22:09.620Z,11.76
2017-07-04T00:22:21.997Z,11.68
2017-07-04T00:22:33.914Z,11.68
2017-07-04T00:22:47.326Z,11.73
2017-07-04T00:22:58.652Z,11.68
2017-07-04T00:23:09.960Z,11.68
2017-07-04T00:23:22.334Z,11.63
2017-07-04T00:23:35.248Z,11.67
2017-07-04T00:23:47.612Z,11.66
2017-07-04T00:24:00.569Z,11.67
2017-07-04T00:24:13.496Z,11.68
2017-07-04T00:24:26.414Z,11.67
2017-07-04T00:24:39.940Z,11.53
2017-07-04T00:24:53.435Z,11.67
2017-07-04T00:25:06.853Z,11.68
2017-07-04T00:25:20.297Z,11.66
2017-07-04T00:25:33.222Z,11.63
2017-07-04T00:25:45.079Z,11.7
2017-07-04T00:25:58.566Z,11.68
2017-07-04T00:26:11.579Z,11.63
2017-07-04T00:26:24.530Z,11.6
2017-07-04T00:26:36.970Z,11.7
2017-07-04T00:26:49.351Z,11.68
2017-07-04T00:27:01.189Z,11.61
2017-07-04T00:27:14.657Z,11.63
2017-07-04T00:27:27.612Z,11.67
2017-07-04T00:27:40.553Z,11.57
2017-07-04T00:27:53.492Z,11.53
2017-07-04T00:28:05.881Z,11.59
2017-07-04T00:28:18.771Z,11.61
2017-07-04T00:28:32.201Z,11.61
2017-07-04T00:28:45.655Z,11.61
2017-07-04T00:28:59.083Z,11.57
2017-07-04T00:29:10.918Z,11.59
2017-07-04T00:29:22.828Z,11.61
2017-07-04T00:29:36.275Z,11.59
2017-07-04T00:29:49.771Z,11.59
2017-07-04T00:30:02.673Z,11.63
2017-07-04T00:30:15.643Z,11.63
2017-07-04T00:30:28.073Z,11.66
2017-07-04T00:30:41.044Z,11.64
2017-07-04T00:30:55.045Z,11.61
2017-07-04T00:31:08.430Z,11.67
2017-07-04T00:31:21.370Z,11.63
2017-07-04T00:31:34.015Z,11.63
2017-07-04T00:31:46.984Z,11.6
2017-07-04T00:32:00.455Z,11.6
2017-07-04T00:32:13.349Z,11.61
2017-07-04T00:32:26.223Z,11.57
2017-07-04T00:32:39.153Z,11.6
2017-07-04T00:32:52.584Z,11.57
2017-07-04T00:33:04.418Z,11.52
2017-07-04T00:33:16.247Z,11.57
2017-07-04T00:33:29.677Z,11.59
2017-07-04T00:33:42.051Z,11.56
2017-07-04T00:33:55.571Z,11.52
2017-07-04T00:34:08.520Z,11.56
2017-07-04T00:34:21.435Z,11.59
2017-07-04T00:34:34.869Z,11.51
2017-07-04T00:34:46.745Z,11.51
2017-07-04T00:34:58.594Z,11.57
2017-07-04T00:35:11.475Z,11.49
2017-07-04T00:35:24.377Z,11.52
2017-07-04T00:35:37.255Z,11.51
2017-07-04T00:35:50.713Z,11.48
2017-07-04T00:36:03.167Z,11.6
2017-07-04T00:36:16.063Z,11.57
2017-07-04T00:36:28.440Z,11.57
2017-07-04T00:36:41.618Z,11.59
2017-07-04T00:36:55.083Z,11.56
2017-07-04T00:37:09.504Z,11.56
2017-07-04T00:37:21.897Z,11.59
2017-07-04T00:37:34.836Z,11.49
2017-07-04T00:37:48.309Z,11.61
2017-07-04T00:38:01.783Z,11.59
2017-07-04T00:38:14.685Z,11.57
2017-07-04T00:38:27.567Z,11.56
2017-07-04T00:38:40.545Z,11.57
2017-07-04T00:38:52.975Z,11.53
2017-07-04T00:39:05.856Z,11.59
2017-07-04T00:39:19.347Z,11.57
2017-07-04T00:39:32.326Z,11.6
2017-07-04T00:39:45.756Z,11.57
2017-07-04T00:39:58.667Z,11.59
2017-07-04T00:40:11.605Z,11.61
2017-07-04T00:40:24.527Z,11.61
2017-07-04T00:40:38.044Z,11.59
2017-07-04T00:40:51.004Z,11.63
2017-07-04T00:41:02.877Z,11.66
2017-07-04T00:41:14.714Z,11.6
2017-07-04T00:41:27.681Z,11.61
2017-07-04T00:41:40.079Z,11.66
2017-07-04T00:41:53.543Z,11.68
2017-07-04T00:42:05.915Z,11.67
2017-07-04T00:42:18.321Z,11.63
2017-07-04T00:42:30.744Z,11.64
2017-07-04T00:42:43.106Z,11.66
2017-07-04T00:42:56.556Z,11.63
2017-07-04T00:43:09.999Z,11.67
2017-07-04T00:43:23.389Z,11.64
2017-07-04T00:43:35.213Z,11.64
2017-07-04T00:43:48.144Z,11.63
2017-07-04T00:44:01.652Z,11.66
2017-07-04T00:44:13.012Z,11.61
2017-07-04T00:44:26.506Z,11.66
2017-07-04T00:44:38.944Z,11.61
2017-07-04T00:44:51.886Z,11.66
2017-07-04T00:45:04.305Z,11.61
2017-07-04T00:45:16.717Z,11.59
2017-07-04T00:45:29.645Z,11.63
2017-07-04T00:45:42.586Z,11.63
2017-07-04T00:45:56.024Z,11.63
2017-07-04T00:46:08.470Z,11.63
2017-07-04T00:46:21.385Z,11.61
2017-07-04T00:46:33.741Z,11.56
2017-07-04T00:46:47.224Z,11.56
2017-07-04T00:47:00.105Z,11.6
2017-07-04T00:47:12.972Z,11.57
2017-07-04T00:47:26.477Z,11.57
2017-07-04T00:47:38.893Z,11.51
2017-07-04T00:47:51.305Z,11.53
2017-07-04T00:48:04.245Z,11.53
2017-07-04T00:48:16.661Z,11.48
2017-07-04T00:48:29.117Z,11.53
2017-07-04T00:48:41.493Z,11.51
2017-07-04T00:48:53.876Z,11.56
2017-07-04T00:49:07.200Z,11.41
2017-07-04T00:49:21.140Z,11.43
2017-07-04T00:49:33.384Z,11.39
2017-07-04T00:49:45.631Z,11.46
2017-07-04T00:49:58.008Z,11.39
2017-07-04T00:50:10.393Z,11.43
2017-07-04T00:50:23.280Z,11.42
2017-07-04T00:50:36.253Z,11.43
2017-07-04T00:50:49.748Z,11.42
2017-07-04T00:51:01.065Z,11.38
2017-07-04T00:51:14.563Z,11.49
2017-07-04T00:51:27.514Z,11.42
2017-07-04T00:51:39.932Z,11.41
2017-07-04T00:51:52.772Z,11.42
2017-07-04T00:52:05.753Z,11.39
2017-07-04T00:52:18.185Z,11.33
2017-07-04T00:52:31.109Z,11.42
2017-07-04T00:52:44.608Z,11.39
2017-07-04T00:52:58.066Z,11.39
2017-07-04T00:53:11.494Z,11.35
2017-07-04T00:53:24.996Z,11.31
2017-07-04T00:53:38.477Z,11.31
2017-07-04T00:53:51.970Z,11.33
2017-07-04T00:54:05.422Z,11.38
2017-07-04T00:54:18.876Z,11.34
2017-07-04T00:54:32.457Z,11.38
2017-07-04T00:54:45.936Z,11.28
2017-07-04T00:54:58.902Z,11.28
2017-07-04T00:55:11.731Z,11.35
2017-07-04T00:55:24.177Z,11.38
2017-07-04T00:55:36.598Z,11.35
2017-07-04T00:55:50.041Z,11.38
2017-07-04T00:56:03.019Z,11.33
2017-07-04T00:56:15.996Z,11.33
2017-07-04T00:56:29.505Z,11.33
2017-07-04T00:56:41.908Z,11.41
2017-07-04T00:56:54.814Z,11.28
2017-07-04T00:57:07.821Z,11.35
2017-07-04T00:57:21.277Z,11.3
2017-07-04T00:57:34.733Z,11.34
2017-07-04T00:57:47.638Z,11.31
2017-07-04T00:58:01.126Z,11.3
2017-07-04T00:58:14.572Z,11.31
2017-07-04T00:58:27.566Z,11.27
2017-07-04T00:58:40.521Z,11.31
2017-07-04T00:58:52.366Z,11.28
2017-07-04T00:59:05.854Z,11.31
2017-07-04T00:59:17.701Z,11.23
2017-07-04T00:59:31.169Z,11.27
2017-07-04T00:59:43.631Z,11.26
2017-07-04T00:59:56.594Z,11.26
2017-07-04T01:00:09.563Z,11.2
2017-07-04T01:00:22.504Z,11.28
2017-07-04T01:00:35.401Z,11.26
2017-07-04T01:00:48.334Z,11.35
2017-07-04T01:01:01.264Z,11.31
2017-07-04T01:01:14.140Z,11.3
2017-07-04T01:01:25.484Z,11.21
2017-07-04T01:01:37.907Z,11.3
2017-07-04T01:01:51.350Z,11.27
2017-07-04T01:02:04.281Z,11.26
2017-07-04T01:02:17.814Z,11.33
2017-07-04T01:02:30.187Z,11.3
2017-07-04T01:02:42.049Z,11.26
2017-07-04T01:02:54.402Z,11.23
2017-07-04T01:03:07.847Z,11.26
2017-07-04T01:03:20.220Z,11.28
2017-07-04T01:03:33.168Z,11.24
2017-07-04T01:03:46.626Z,11.28
2017-07-04T01:04:00.129Z,11.26
2017-07-04T01:04:12.522Z,11.33
2017-07-04T01:04:25.482Z,11.31
2017-07-04T01:04:38.471Z,11.34
2017-07-04T01:04:51.398Z,11.31
2017-07-04T01:05:04.348Z,11.35
2017-07-04T01:05:16.785Z,11.34
2017-07-04T01:05:28.179Z,11.34
2017-07-04T01:05:40.578Z,11.33
2017-07-04T01:05:54.021Z,11.34
2017-07-04T01:06:07.461Z,11.34
2017-07-04T01:06:20.931Z,11.35
2017-07-04T01:06:33.877Z,11.42
2017-07-04T01:06:45.775Z,11.35
2017-07-04T01:06:58.413Z,11.35
2017-07-04T01:07:10.287Z,11.38
2017-07-04T01:07:22.172Z,11.31
2017-07-04T01:07:34.553Z,11.35
2017-07-04T01:07:47.438Z,11.34
2017-07-04T01:07:59.292Z,11.42
2017-07-04T01:08:11.687Z,11.31
2017-07-04T01:08:24.051Z,11.34
2017-07-04T01:08:36.985Z,11.35
2017-07-04T01:08:49.910Z,11.34
2017-07-04T01:09:03.399Z,11.31
2017-07-04T01:09:16.303Z,11.3
2017-07-04T01:09:29.750Z,11.3
2017-07-04T01:09:42.119Z,11.31
2017-07-04T01:09:53.945Z,11.33
2017-07-04T01:10:07.369Z,11.33
2017-07-04T01:10:20.303Z,11.33
2017-07-04T01:10:32.145Z,11.33
2017-07-04T01:10:45.072Z,11.33
2017-07-04T01:10:58.577Z,11.3
2017-07-04T01:11:10.919Z,11.35
2017-07-04T01:11:23.288Z,11.31
2017-07-04T01:11:36.752Z,11.33
2017-07-04T01:11:49.690Z,11.31
2017-07-04T01:12:03.166Z,11.31
2017-07-04T01:12:16.062Z,11.3
2017-07-04T01:12:29.550Z,11.34
2017-07-04T01:12:42.490Z,11.42
2017-07-04T01:12:55.384Z,11.34
2017-07-04T01:13:08.326Z,11.34
2017-07-04T01:13:20.225Z,11.31
2017-07-04T01:13:33.130Z,11.34
2017-07-04T01:13:46.621Z,11.35
2017-07-04T01:14:00.132Z,11.31
2017-07-04T01:14:12.013Z,11.33
2017-07-04T01:14:25.452Z,11.38
2017-07-04T01:14:37.763Z,11.3
2017-07-04T01:14:50.116Z,11.33
2017-07-04T01:15:02.515Z,11.3
2017-07-04T01:15:15.389Z,11.34
2017-07-04T01:15:28.911Z,11.31
2017-07-04T01:15:41.886Z,11.34
2017-07-04T01:15:53.784Z,11.31
2017-07-04T01:16:07.252Z,11.31
2017-07-04T01:16:20.747Z,11.34
2017-07-04T01:16:33.658Z,11.34
2017-07-04T01:16:46.641Z,11.39
2017-07-04T01:16:59.526Z,11.35
2017-07-04T01:17:12.496Z,11.39
2017-07-04T01:17:26.000Z,11.31
2017-07-04T01:17:38.390Z,11.39
2017-07-04T01:17:51.350Z,11.41
2017-07-04T01:18:04.276Z,11.39
2017-07-04T01:18:17.743Z,11.42
2017-07-04T01:18:30.637Z,11.41
2017-07-04T01:18:43.552Z,11.41
2017-07-04T01:18:57.001Z,11.41
2017-07-04T01:19:08.907Z,11.42
2017-07-04T01:19:22.382Z,11.43
2017-07-04T01:19:35.371Z,11.42
2017-07-04T01:19:48.761Z,11.41
2017-07-04T01:20:01.691Z,11.45
2017-07-04T01:20:13.541Z,11.49
2017-07-04T01:20:26.449Z,11.41
2017-07-04T01:20:38.323Z,11.39
2017-07-04T01:20:50.671Z,11.41
2017-07-04T01:21:04.180Z,11.35
2017-07-04T01:21:17.596Z,11.35
2017-07-04T01:21:31.058Z,11.41
2017-07-04T01:21:43.967Z,11.39
2017-07-04T01:21:57.790Z,11.41
2017-07-04T01:22:10.682Z,11.31
2017-07-04T01:22:23.604Z,11.31
2017-07-04T01:22:37.025Z,11.34
2017-07-04T01:22:49.858Z,11.34
2017-07-04T01:23:01.689Z,11.31
2017-07-04T01:23:13.563Z,11.33
2017-07-04T01:23:26.460Z,11.41
2017-07-04T01:23:39.947Z,11.34
2017-07-04T01:23:53.419Z,11.38
2017-07-04T01:24:06.428Z,11.27
2017-07-04T01:24:18.797Z,11.33
2017-07-04T01:24:32.309Z,11.39
2017-07-04T01:24:45.814Z,11.27
2017-07-04T01:24:59.303Z,11.21
2017-07-04T01:25:11.666Z,11.28
2017-07-04T01:25:24.064Z,11.27
2017-07-04T01:25:36.432Z,11.24
2017-07-04T01:25:48.281Z,11.31
2017-07-04T01:26:01.248Z,11.24
2017-07-04T01:26:14.661Z,11.23
2017-07-04T01:26:27.532Z,11.18
2017-07-04T01:26:39.410Z,11.27
2017-07-04T01:26:52.319Z,11.24
2017-07-04T01:27:05.188Z,11.23
2017-07-04T01:27:18.138Z,11.27
2017-07-04T01:27:30.022Z,11.27
2017-07-04T01:27:42.974Z,11.27
2017-07-04T01:27:56.439Z,11.2
2017-07-04T01:28:09.442Z,11.2
2017-07-04T01:28:21.288Z,11.31
2017-07-04T01:28:34.215Z,11.21
2017-07-04T01:28:47.663Z,11.21
2017-07-04T01:29:01.141Z,11.24
2017-07-04T01:29:14.069Z,11.2
2017-07-04T01:29:27.016Z,11.23
2017-07-04T01:29:39.901Z,11.26
2017-07-04T01:29:52.762Z,11.27
2017-07-04T01:30:05.163Z,11.27
2017-07-04T01:30:18.074Z,11.3
2017-07-04T01:30:30.513Z,11.28
2017-07-04T01:30:43.944Z,11.27
2017-07-04T01:30:57.366Z,11.3
2017-07-04T01:31:10.346Z,11.27
2017-07-04T01:31:23.269Z,11.2
2017-07-04T01:31:35.108Z,11.24
2017-07-04T01:31:47.524Z,11.27
2017-07-04T01:32:00.454Z,11.31
2017-07-04T01:32:13.401Z,11.27
2017-07-04T01:32:26.358Z,11.3
2017-07-04T01:32:38.185Z,11.28
2017-07-04T01:32:51.621Z,11.26
2017-07-04T01:33:04.611Z,11.23
2017-07-04T01:33:17.555Z,11.31
2017-07-04T01:33:30.485Z,11.31
2017-07-04T01:33:43.477Z,11.23
2017-07-04T01:33:56.411Z,11.27
2017-07-04T01:34:09.887Z,11.26
2017-07-04T01:34:23.345Z,11.24
2017-07-04T01:34:36.776Z,11.26
2017-07-04T01:34:49.679Z,11.24
2017-07-04T01:35:02.580Z,11.27
2017-07-04T01:35:14.992Z,11.27
2017-07-04T01:35:27.915Z,11.33
2017-07-04T01:35:39.225Z,11.2
2017-07-04T01:35:52.166Z,11.3
2017-07-04T01:36:05.573Z,11.26
2017-07-04T01:36:17.999Z,11.27
2017-07-04T01:36:30.388Z,11.27
2017-07-04T01:36:42.236Z,11.35
2017-07-04T01:36:55.151Z,11.2
2017-07-04T01:37:08.862Z,11.23
2017-07-04T01:37:21.296Z,11.27
2017-07-04T01:37:33.684Z,11.27
2017-07-04T01:37:45.495Z,11.3
2017-07-04T01:37:58.903Z,11.27
2017-07-04T01:38:12.398Z,11.28
2017-07-04T01:38:25.253Z,11.28
2017-07-04T01:38:38.173Z,11.23
2017-07-04T01:38:51.058Z,11.3
2017-07-04T01:39:03.966Z,11.28
2017-07-04T01:39:16.905Z,11.31
2017-07-04T01:39:29.797Z,11.24
2017-07-04T01:39:43.254Z,11.31
2017-07-04T01:39:56.179Z,11.18
2017-07-04T01:40:08.562Z,11.28
2017-07-04T01:40:21.466Z,11.26
2017-07-04T01:40:33.333Z,11.3
2017-07-04T01:40:46.839Z,11.16
2017-07-04T01:41:00.332Z,11.16
2017-07-04T01:41:12.712Z,11.15
2017-07-04T01:41:25.085Z,11.18
2017-07-04T01:41:37.500Z,11.23
2017-07-04T01:41:50.433Z,11.2
2017-07-04T01:42:02.814Z,11.18
2017-07-04T01:42:15.707Z,11.18
2017-07-04T01:42:27.567Z,11.21
2017-07-04T01:42:39.962Z,11.13
2017-07-04T01:42:52.366Z,11.06
2017-07-04T01:43:05.297Z,11.23
2017-07-04T01:43:18.198Z,11.15
2017-07-04T01:43:31.632Z,11.1
2017-07-04T01:43:44.031Z,11.2
2017-07-04T01:43:56.445Z,11.13
2017-07-04T01:44:08.339Z,11.18
2017-07-04T01:44:20.745Z,11.12
2017-07-04T01:44:33.710Z,11.13
2017-07-04T01:44:47.263Z,11.18
2017-07-04T01:45:00.182Z,11.13
2017-07-04T01:45:12.571Z,11.18
2017-07-04T01:45:24.941Z,11.1
2017-07-04T01:45:37.357Z,11.15
2017-07-04T01:45:50.285Z,11.2
2017-07-04T01:46:03.174Z,11.2
2017-07-04T01:46:14.981Z,11.15
2017-07-04T01:46:28.466Z,11.13
2017-07-04T01:46:41.410Z,11.12
2017-07-04T01:46:54.937Z,11.09
2017-07-04T01:47:08.469Z,11.15
2017-07-04T01:47:21.956Z,11.12
2017-07-04T01:47:35.402Z,11.15
2017-07-04T01:47:48.297Z,11.18
2017-07-04T01:48:01.763Z,11.06
2017-07-04T01:48:15.174Z,11.16
2017-07-04T01:48:27.522Z,11.12
2017-07-04T01:48:39.878Z,11.12
2017-07-04T01:48:53.339Z,11.13
2017-07-04T01:49:06.255Z,11.15
2017-07-04T01:49:19.167Z,11.18
2017-07-04T01:49:32.638Z,11.12
2017-07-04T01:49:46.141Z,11.13
2017-07-04T01:49:59.089Z,11.15
2017-07-04T01:50:12.023Z,11.2
2017-07-04T01:50:24.973Z,11.18
2017-07-04T01:50:36.817Z,11.08
2017-07-04T01:50:49.727Z,11.13
2017-07-04T01:51:02.111Z,11.12
2017-07-04T01:51:15.558Z,11.05
2017-07-04T01:51:28.471Z,11.1
2017-07-04T01:51:40.874Z,11.13
2017-07-04T01:51:53.740Z,11.12
2017-07-04T01:52:06.149Z,11.18
2017-07-04T01:52:19.603Z,11.05
2017-07-04T01:52:32.038Z,11.05
2017-07-04T01:52:44.389Z,11.1
2017-07-04T01:52:56.299Z,11.08
2017-07-04T01:53:08.758Z,11.06
2017-07-04T01:53:21.163Z,11.13
2017-07-04T01:53:34.075Z,11.05
2017-07-04T01:53:46.980Z,11.06
2017-07-04T01:53:59.422Z,11.1
2017-07-04T01:54:12.893Z,11.09
2017-07-04T01:54:26.291Z,11.09
2017-07-04T01:54:39.237Z,11.09
2017-07-04T01:54:51.613Z,11.09
2017-07-04T01:55:04.585Z,11.06
2017-07-04T01:55:17.047Z,11.08
2017-07-04T01:55:29.477Z,11.06
2017-07-04T01:55:42.436Z,11.09
2017-07-04T01:55:55.404Z,11.09
2017-07-04T01:56:07.770Z,11.06
2017-07-04T01:56:19.637Z,11.09
2017-07-04T01:56:32.058Z,11.08
2017-07-04T01:56:45.008Z,11.02
2017-07-04T01:56:57.968Z,11.08
2017-07-04T01:57:11.479Z,11.09
2017-07-04T01:57:23.903Z,11.09
2017-07-04T01:57:36.296Z,11.09
2017-07-04T01:57:49.253Z,11.1
2017-07-04T01:58:02.757Z,11.1
2017-07-04T01:58:16.224Z,11.08
2017-07-04T01:58:29.691Z,11.08
2017-07-04T01:58:41.544Z,11.05
2017-07-04T01:58:54.406Z,11.06
2017-07-04T01:59:07.352Z,11.1
2017-07-04T01:59:20.228Z,11.08
2017-07-04T01:59:32.661Z,11.09
2017-07-04T01:59:45.560Z,11.08
2017-07-04T01:59:58.498Z,11.1
2017-07-04T02:00:10.348Z,11.08
2017-07-04T02:00:23.316Z,11.02
2017-07-04T02:00:35.664Z,11.08
2017-07-04T02:00:48.610Z,11.05
2017-07-04T02:01:00.501Z,11
2017-07-04T02:01:13.450Z,10.97
2017-07-04T02:01:26.390Z,11.02
2017-07-04T02:01:38.798Z,11.03
2017-07-04T02:01:50.710Z,10.97
2017-07-04T02:02:04.121Z,10.97
2017-07-04T02:02:16.980Z,11.02
2017-07-04T02:02:30.515Z,10.95
2017-07-04T02:02:43.430Z,11
2017-07-04T02:02:56.872Z,11.02
2017-07-04T02:03:10.340Z,11
2017-07-04T02:03:23.823Z,10.95
2017-07-04T02:03:36.790Z,11
2017-07-04T02:03:50.239Z,10.95
2017-07-04T02:04:02.631Z,10.91
2017-07-04T02:04:15.060Z,10.88
2017-07-04T02:04:28.530Z,10.97
2017-07-04T02:04:39.842Z,11.03
2017-07-04T02:04:52.257Z,11.05
2017-07-04T02:05:05.194Z,11
2017-07-04T02:05:18.121Z,10.97
2017-07-04T02:05:31.010Z,10.98
2017-07-04T02:05:43.885Z,11
2017-07-04T02:05:56.301Z,11.05
2017-07-04T02:06:09.734Z,10.97
2017-07-04T02:06:22.681Z,11.02
2017-07-04T02:06:35.088Z,11.03
2017-07-04T02:06:48.037Z,11
2017-07-04T02:07:00.445Z,10.97
2017-07-04T02:07:13.395Z,11.02
2017-07-04T02:07:26.552Z,11.1
2017-07-04T02:07:40.006Z,11
2017-07-04T02:07:53.488Z,11
2017-07-04T02:08:05.876Z,11.03
2017-07-04T02:08:18.786Z,11.05
2017-07-04T02:08:31.728Z,11.1
2017-07-04T02:08:45.181Z,11
2017-07-04T02:08:58.718Z,11.1
2017-07-04T02:09:11.105Z,11.08
2017-07-04T02:09:23.997Z,11.06
2017-07-04T02:09:36.915Z,11.08
2017-07-04T02:09:49.305Z,11.1
2017-07-04T02:10:02.765Z,11.06
2017-07-04T02:10:15.640Z,11.13
2017-07-04T02:10:29.070Z,11.1
2017-07-04T02:10:42.577Z,11.15
2017-07-04T02:10:55.010Z,11.2
2017-07-04T02:11:06.828Z,11.2
2017-07-04T02:11:19.717Z,11.15
2017-07-04T02:11:32.194Z,11.2
2017-07-04T02:11:45.604Z,11.18
2017-07-04T02:11:59.052Z,11.24
2017-07-04T02:12:12.511Z,11.18
2017-07-04T02:12:25.946Z,11.21
2017-07-04T02:12:38.291Z,11.21
2017-07-04T02:12:51.218Z,11.16
2017-07-04T02:13:03.052Z,11.18
2017-07-04T02:13:15.978Z,11.18
2017-07-04T02:13:29.404Z,11.13
2017-07-04T02:13:42.844Z,11.21
2017-07-04T02:13:55.793Z,11.2
2017-07-04T02:14:08.636Z,11.18
2017-07-04T02:14:22.159Z,11.24
2017-07-04T02:14:35.626Z,11.2
2017-07-04T02:14:48.012Z,11.18
2017-07-04T02:15:00.402Z,11.12
2017-07-04T02:15:12.782Z,11.15
2017-07-04T02:15:26.243Z,11.2
2017-07-04T02:15:38.627Z,11.18
2017-07-04T02:15:51.586Z,11.18
2017-07-04T02:16:05.062Z,11.16
2017-07-04T02:16:17.908Z,11.18
2017-07-04T02:16:30.807Z,11.18
2017-07-04T02:16:43.733Z,11.2
2017-07-04T02:16:57.168Z,11.13
2017-07-04T02:17:10.095Z,11.15
2017-07-04T02:17:23.007Z,11.1
2017-07-04T02:17:34.832Z,11.12
2017-07-04T02:17:47.194Z,10.97
2017-07-04T02:18:00.643Z,11.03
2017-07-04T02:18:14.142Z,11.03
2017-07-04T02:18:27.114Z,11.05
2017-07-04T02:18:38.972Z,11.06
2017-07-04T02:18:51.908Z,11.02
2017-07-04T02:19:04.250Z,11.09
2017-07-04T02:19:17.703Z,11.08
2017-07-04T02:19:30.100Z,11.08
2017-07-04T02:19:43.582Z,11.08
2017-07-04T02:19:56.467Z,11.12
2017-07-04T02:20:09.927Z,11.08
2017-07-04T02:20:22.331Z,11.08
2017-07-04T02:20:34.197Z,11.05
2017-07-04T02:20:47.628Z,11.05
2017-07-04T02:21:00.624Z,11.08
2017-07-04T02:21:14.050Z,11.06
2017-07-04T02:21:26.429Z,11.08
2017-07-04T02:21:38.820Z,11.02
2017-07-04T02:21:51.231Z,11.09
2017-07-04T02:22:03.595Z,11.09
2017-07-04T02:22:14.920Z,11.03
2017-07-04T02:22:27.575Z,11.05
2017-07-04T02:22:40.007Z,10.97
2017-07-04T02:22:52.948Z,11.03
2017-07-04T02:23:04.274Z,11.13
2017-07-04T02:23:17.674Z,10.97
2017-07-04T02:23:30.681Z,10.97
2017-07-04T02:23:44.179Z,11.02
2017-07-04T02:23:57.117Z,11.03
2017-07-04T02:24:10.020Z,11.02
2017-07-04T02:24:22.446Z,11.09
2017-07-04T02:24:35.418Z,11.05
2017-07-04T02:24:48.885Z,11.03
2017-07-04T02:25:00.703Z,11.03
2017-07-04T02:25:13.643Z,11.08
2017-07-04T02:25:26.047Z,11.09
2017-07-04T02:25:38.902Z,11.08
2017-07-04T02:25:52.362Z,11.08
2017-07-04T02:26:03.717Z,11.08
2017-07-04T02:26:16.635Z,11.1
2017-07-04T02:26:29.065Z,11.16
2017-07-04T02:26:41.482Z,11.09
2017-07-04T02:26:54.349Z,11.12
2017-07-04T02:27:06.769Z,11.15
2017-07-04T02:27:20.178Z,11.15
2017-07-04T02:27:32.041Z,11.18
2017-07-04T02:27:44.481Z,11.18
2017-07-04T02:27:57.343Z,11.24
2017-07-04T02:28:10.264Z,11.15
2017-07-04T02:28:23.180Z,11.18
2017-07-04T02:28:36.586Z,11.15
2017-07-04T02:28:49.511Z,11.21
2017-07-04T02:29:02.958Z,11.2
2017-07-04T02:29:15.913Z,11.18
2017-07-04T02:29:29.396Z,11.15
2017-07-04T02:29:41.284Z,11.06
2017-07-04T02:29:54.786Z,11.2
2017-07-04T02:30:07.719Z,11.06
2017-07-04T02:30:20.617Z,11.21
2017-07-04T02:30:32.493Z,11.16
2017-07-04T02:30:45.375Z,11.18
2017-07-04T02:30:58.781Z,11.18
2017-07-04T02:31:11.701Z,11.24
2017-07-04T02:31:24.626Z,11.18
2017-07-04T02:31:36.469Z,11.23
2017-07-04T02:31:49.360Z,11.15
2017-07-04T02:32:01.790Z,11.13
2017-07-04T02:32:14.683Z,11.15
2017-07-04T02:32:27.628Z,11.12
2017-07-04T02:32:40.570Z,11.08
2017-07-04T02:32:54.080Z,11.21
2017-07-04T02:33:07.075Z,11.13
2017-07-04T02:33:20.602Z,11.2
2017-07-04T02:33:33.515Z,11.15
2017-07-04T02:33:45.911Z,11.18
2017-07-04T02:33:59.371Z,11.13
2017-07-04T02:34:12.221Z,11.12
2017-07-04T02:34:24.594Z,11.1
2017-07-04T02:34:37.002Z,11.1
2017-07-04T02:34:49.409Z,11.16
2017-07-04T02:35:02.827Z,11.1
2017-07-04T02:35:15.746Z,11.18
2017-07-04T02:35:28.266Z,11.15
2017-07-04T02:35:41.131Z,11.21
2017-07-04T02:35:54.118Z,11.18
2017-07-04T02:36:07.054Z,11.21
2017-07-04T02:36:19.372Z,11.2
2017-07-04T02:36:31.744Z,11.16
2017-07-04T02:36:43.579Z,11.12
2017-07-04T02:36:56.593Z,11.13
2017-07-04T02:37:08.957Z,11.15
2017-07-04T02:37:22.403Z,11.16
2017-07-04T02:37:35.618Z,11.15
2017-07-04T02:37:48.560Z,11.2
2017-07-04T02:38:02.027Z,11.18
2017-07-04T02:38:13.904Z,11.16
2017-07-04T02:38:26.888Z,11.2
2017-07-04T02:38:39.789Z,11.15
2017-07-04T02:38:53.274Z,11.2
2017-07-04T02:39:06.173Z,11.2
2017-07-04T02:39:19.070Z,11.18
2017-07-04T02:39:31.994Z,11.13
2017-07-04T02:39:44.942Z,11.16
2017-07-04T02:39:57.434Z,11.15
2017-07-04T02:40:10.370Z,11.21
2017-07-04T02:40:23.408Z,11.2
2017-07-04T02:40:35.825Z,11.2
2017-07-04T02:40:48.237Z,11.18
2017-07-04T02:41:01.117Z,11.16
2017-07-04T02:41:12.945Z,11.15
2017-07-04T02:41:26.350Z,11.2
2017-07-04T02:41:38.749Z,11.16
2017-07-04T02:41:52.180Z,11.12
2017-07-04T02:42:04.585Z,11.18
2017-07-04T02:42:18.022Z,11.08
2017-07-04T02:42:30.919Z,11.16
2017-07-04T02:42:43.316Z,11.18
2017-07-04T02:42:56.232Z,11.12
2017-07-04T02:43:09.154Z,11.2
2017-07-04T02:43:22.087Z,11.18
2017-07-04T02:43:35.477Z,11.2
2017-07-04T02:43:47.317Z,11.2
2017-07-04T02:44:00.241Z,11.16
2017-07-04T02:44:12.648Z,11.2
2017-07-04T02:44:26.082Z,11.16
2017-07-04T02:44:38.471Z,11.15
2017-07-04T02:44:51.418Z,11.16
2017-07-04T02:45:04.375Z,11.13
2017-07-04T02:45:17.346Z,11.18
2017-07-04T02:45:30.212Z,11.09
2017-07-04T02:45:43.115Z,11.16
2017-07-04T02:45:56.060Z,11.16
2017-07-04T02:46:08.964Z,11.16